Micco, Florida
Current Conditions -  °F | °C
As of 8:53 AM on Thursday 27 Nov 2014 (Local Time) from KVRB Reporting Station
Clear Clear  
Wind Chill: 13°   Ceiling: Unl
Heat Index: 13°   Visibility: 10mi
Dew Point:   Wind: 12mph
Humidity: 62%   Direction: 320°NW
Pressure: 30.28"   Gusts: NA
Location:  27.8606°N, 80.5442°W
Report Text: KVRB 271353Z AUTO 32010KT 10SM CLR 13/06 A3028 RMK AO2 SLP253 T01280056
Loading
Personal Weather Stations






























Interactive Weather Map New forecast layout! Learn more

10-Day Weather Forecast

Advertisements
Track Severe Weather on mobile